createdAt,value
2023-04-18T00:00:10.805Z,102984.91
2023-04-18T00:02:38.916Z,102981.44
2023-04-18T00:05:07.868Z,102986.22
2023-04-18T00:07:35.709Z,102979.31
2023-04-18T00:10:04.120Z,102981.63
2023-04-18T00:12:32.058Z,102980.22
2023-04-18T00:14:58.959Z,102971.63
2023-04-18T00:17:28.920Z,102982.38
2023-04-18T00:19:56.543Z,102973.75
2023-04-18T00:22:23.618Z,102978.97
2023-04-18T00:24:51.073Z,102985.88
2023-04-18T00:27:21.609Z,102979.66
2023-04-18T00:29:48.991Z,102978.97
2023-04-18T00:32:17.074Z,102984.09
2023-04-18T00:34:43.998Z,102990.41
2023-04-18T00:37:10.862Z,102981.81
2023-04-18T00:39:37.786Z,102976.41
2023-04-18T00:42:04.753Z,102986.03
2023-04-18T00:44:32.499Z,102980.69
2023-04-18T00:46:59.491Z,102980.78
2023-04-18T00:49:27.095Z,102973.78
2023-04-18T00:51:56.043Z,102980.78
2023-04-18T00:54:24.542Z,102979.13
2023-04-18T00:56:51.853Z,102981.13
2023-04-18T00:59:18.901Z,102977.63
2023-04-18T01:01:45.981Z,102980.19
2023-04-18T01:04:13.457Z,102978.38
2023-04-18T01:06:41.065Z,102981.88
2023-04-18T01:09:08.076Z,102982.72
2023-04-18T01:11:36.145Z,102976.84
2023-04-18T01:14:07.623Z,102983.06
2023-04-18T01:16:34.678Z,102978.66
2023-04-18T01:19:02.325Z,102977.75
2023-04-18T01:21:34.035Z,102986.50
2023-04-18T01:24:08.387Z,102985.47
2023-04-18T01:26:35.336Z,102974.09
2023-04-18T01:29:02.204Z,102981.22
2023-04-18T01:31:29.268Z,102979.59
2023-04-18T01:33:56.221Z,102978.78
2023-04-18T01:36:23.053Z,102975.25
2023-04-18T01:38:49.912Z,102980.28
2023-04-18T01:41:16.774Z,102974.28
2023-04-18T01:43:43.625Z,102982.28
2023-04-18T01:46:10.615Z,102977.28
2023-04-18T01:48:37.534Z,102980.06
2023-04-18T01:51:04.676Z,102975.38
2023-04-18T01:53:32.212Z,102977.25
2023-04-18T01:55:59.064Z,102971.13
2023-04-18T01:58:26.913Z,102977.50
2023-04-18T02:00:54.873Z,102975.75
2023-04-18T02:03:22.005Z,102975.31
2023-04-18T02:05:49.160Z,102971.91
2023-04-18T02:08:16.028Z,102980.91
2023-04-18T02:10:42.989Z,102977.16
2023-04-18T02:13:10.265Z,102981.44
2023-04-18T02:15:37.159Z,102976.78
2023-04-18T02:18:04.298Z,102976.25
2023-04-18T02:20:31.909Z,102981.47
2023-04-18T02:22:59.128Z,102978.72
2023-04-18T02:25:27.816Z,102983.16
2023-04-18T02:27:55.842Z,102978.97
2023-04-18T02:30:23.346Z,102975.72
2023-04-18T02:32:54.898Z,102979.06
2023-04-18T02:35:21.966Z,102977.88
2023-04-18T02:37:49.122Z,102980.50
2023-04-18T02:40:16.034Z,102985.03
2023-04-18T02:42:42.953Z,102983.41
2023-04-18T02:45:10.147Z,102987.94
2023-04-18T02:47:47.073Z,102987.00
2023-04-18T02:50:21.011Z,102982.81
2023-04-18T02:52:47.882Z,102979.47
2023-04-18T02:55:14.919Z,102991.84
2023-04-18T02:57:41.815Z,102984.72
2023-04-18T03:00:09.478Z,102980.44
2023-04-18T03:02:36.374Z,102977.66
2023-04-18T03:05:03.615Z,102986.50
2023-04-18T03:07:31.144Z,102987.59
2023-04-18T03:09:58.178Z,102991.22
2023-04-18T03:12:25.073Z,102994.88
2023-04-18T03:14:51.996Z,102992.25
2023-04-18T03:17:18.872Z,102991.31
2023-04-18T03:19:46.587Z,102992.88
2023-04-18T03:22:14.430Z,102995.66
2023-04-18T03:24:41.486Z,102997.53
2023-04-18T03:27:08.427Z,103003.00
2023-04-18T03:29:35.346Z,103002.84
2023-04-18T03:32:02.254Z,102995.69
2023-04-18T03:34:29.608Z,103006.31
2023-04-18T03:36:56.587Z,103005.50
2023-04-18T03:39:23.467Z,103004.63
2023-04-18T03:41:50.356Z,103001.03
2023-04-18T03:44:17.261Z,103004.44
2023-04-18T03:46:44.450Z,103013.41
2023-04-18T03:49:11.374Z,103007.13
2023-04-18T03:51:49.438Z,103007.00
2023-04-18T03:54:17.330Z,103014.25
2023-04-18T03:56:44.830Z,103015.16
2023-04-18T03:59:11.988Z,103010.84
2023-04-18T04:01:39.002Z,103013.47
2023-04-18T04:04:06.146Z,103012.72
2023-04-18T04:06:33.152Z,103011.78
2023-04-18T04:09:00.012Z,103025.22
2023-04-18T04:11:27.431Z,103017.41
2023-04-18T04:13:54.336Z,103022.88
2023-04-18T04:16:21.542Z,103013.94
2023-04-18T04:18:48.511Z,103021.03
2023-04-18T04:21:15.914Z,103015.66
2023-04-18T04:23:43.711Z,103014.97
2023-04-18T04:26:10.816Z,103020.19
2023-04-18T04:28:39.097Z,103018.41
2023-04-18T04:31:06.992Z,103016.44
2023-04-18T04:33:34.021Z,103021.88
2023-04-18T04:36:01.437Z,103027.16
2023-04-18T04:38:31.218Z,103023.56
2023-04-18T04:40:58.634Z,103032.31
2023-04-18T04:43:26.226Z,103035.81
2023-04-18T04:45:54.096Z,103041.25
2023-04-18T04:48:22.368Z,103037.44
2023-04-18T04:50:54.355Z,103040.06
2023-04-18T04:53:25.072Z,103047.22
2023-04-18T04:55:57.565Z,103044.47
2023-04-18T04:58:27.645Z,103049.94
2023-04-18T05:00:57.552Z,103049.56
2023-04-18T05:03:24.715Z,103043.13
2023-04-18T05:05:51.956Z,103043.94
2023-04-18T05:08:18.981Z,103054.03
2023-04-18T05:10:46.208Z,103061.22
2023-04-18T05:13:13.130Z,103056.78
2023-04-18T05:15:40.365Z,103048.63
2023-04-18T05:18:07.554Z,103046.13
2023-04-18T05:20:34.814Z,103041.72
2023-04-18T05:23:01.855Z,103048.75
2023-04-18T05:25:30.073Z,103047.13
2023-04-18T05:27:57.473Z,103054.44
2023-04-18T05:30:24.525Z,103049.09
2023-04-18T05:32:51.992Z,103050.84
2023-04-18T05:35:19.070Z,103066.72
2023-04-18T05:37:46.179Z,103064.66
2023-04-18T05:40:13.709Z,103061.84
2023-04-18T05:42:41.357Z,103064.56
2023-04-18T05:45:08.821Z,103067.38
2023-04-18T05:47:35.871Z,103071.72
2023-04-18T05:50:03.201Z,103076.28
2023-04-18T05:52:30.152Z,103077.94
2023-04-18T05:54:57.284Z,103075.19
2023-04-18T05:57:24.312Z,103077.88
2023-04-18T05:59:51.440Z,103078.50
2023-04-18T06:02:18.855Z,103079.25
2023-04-18T06:04:46.185Z,103076.44
2023-04-18T06:07:13.484Z,103073.59
2023-04-18T06:09:40.612Z,103075.59
2023-04-18T06:12:07.663Z,103082.75
2023-04-18T06:14:34.662Z,103076.44
2023-04-18T06:17:01.715Z,103072.88
2023-04-18T06:19:28.830Z,103072.88
2023-04-18T06:21:55.970Z,103075.69
2023-04-18T06:24:23.949Z,103074.75
2023-04-18T06:26:51.114Z,103078.03
2023-04-18T06:29:18.392Z,103081.53
2023-04-18T06:31:47.066Z,103081.44
2023-04-18T06:34:14.524Z,103084.09
2023-04-18T06:36:41.512Z,103089.34
2023-04-18T06:39:09.092Z,103088.41
2023-04-18T06:41:38.969Z,103087.22
2023-04-18T06:44:06.221Z,103091.34
2023-04-18T06:46:33.477Z,103091.69
2023-04-18T06:49:00.785Z,103095.03
2023-04-18T06:51:27.735Z,103084.53
2023-04-18T06:53:55.008Z,103091.34
2023-04-18T06:56:25.111Z,103095.44
2023-04-18T06:58:53.200Z,103089.41
2023-04-18T07:01:20.332Z,103094.91
2023-04-18T07:03:48.091Z,103101.69
2023-04-18T07:06:15.308Z,103099.56
2023-04-18T07:08:42.442Z,103100.59
2023-04-18T07:11:09.839Z,103100.34
2023-04-18T07:13:36.773Z,103100.88
2023-04-18T07:16:03.881Z,103107.00
2023-04-18T07:18:38.133Z,103101.13
2023-04-18T07:21:09.176Z,103099.34
2023-04-18T07:23:36.244Z,103103.53
2023-04-18T07:26:05.909Z,103104.00
2023-04-18T07:28:34.488Z,103103.25
2023-04-18T07:31:03.291Z,103102.00
2023-04-18T07:33:33.980Z,103099.25
2023-04-18T07:36:03.137Z,103100.25
2023-04-18T07:38:30.091Z,103102.66
2023-04-18T07:40:59.354Z,103102.22
2023-04-18T07:43:27.115Z,103105.47
2023-04-18T07:45:54.455Z,103110.06
2023-04-18T07:48:28.007Z,103103.09
2023-04-18T07:50:54.974Z,103109.72
2023-04-18T07:53:22.009Z,103105.13
2023-04-18T07:55:50.076Z,103103.97
2023-04-18T07:58:17.511Z,103112.53
2023-04-18T08:00:45.170Z,103112.41
2023-04-18T08:03:13.344Z,103111.47
2023-04-18T08:05:43.201Z,103115.06
2023-04-18T08:08:13.238Z,103105.06
2023-04-18T08:10:40.225Z,103104.94
2023-04-18T08:13:07.369Z,103108.19
2023-04-18T08:15:37.014Z,103105.59
2023-04-18T08:18:03.983Z,103105.53
2023-04-18T08:20:31.313Z,103107.72
2023-04-18T08:23:07.935Z,103112.72
2023-04-18T08:25:40.057Z,103104.72
2023-04-18T08:28:07.128Z,103108.19
2023-04-18T08:30:34.353Z,103117.88
2023-04-18T08:33:01.592Z,103120.25
2023-04-18T08:35:28.626Z,103116.59
2023-04-18T08:37:55.512Z,103112.03
2023-04-18T08:40:22.526Z,103108.69
2023-04-18T08:42:49.742Z,103105.94
2023-04-18T08:45:18.812Z,103107.38
2023-04-18T08:47:45.806Z,103106.38
2023-04-18T08:50:12.938Z,103114.50
2023-04-18T08:52:45.229Z,103114.22
2023-04-18T08:55:12.183Z,103107.31
2023-04-18T08:57:40.041Z,103107.31
2023-04-18T09:00:11.955Z,103111.38
2023-04-18T09:02:43.975Z,103100.53
2023-04-18T09:05:19.854Z,103102.13
2023-04-18T09:07:53.122Z,103095.88
2023-04-18T09:10:30.358Z,103105.13
2023-04-18T09:12:58.395Z,103096.28
2023-04-18T09:15:27.476Z,103097.28
2023-04-18T09:18:03.250Z,103095.34
2023-04-18T09:20:38.685Z,103100.25
2023-04-18T09:23:11.519Z,103101.63
2023-04-18T09:25:44.537Z,103101.72
2023-04-18T09:28:29.416Z,103103.31
2023-04-18T09:30:58.241Z,103097.13
2023-04-18T09:33:32.683Z,103093.41
2023-04-18T09:36:19.951Z,103093.34
2023-04-18T09:38:47.792Z,103090.16
2023-04-18T09:41:21.204Z,103089.59
2023-04-18T09:43:48.428Z,103091.69
2023-04-18T09:46:17.853Z,103088.91
2023-04-18T09:48:44.954Z,103096.78
2023-04-18T09:51:15.901Z,103092.75
2023-04-18T09:53:48.054Z,103088.50
2023-04-18T09:56:24.932Z,103091.72
2023-04-18T09:58:57.173Z,103097.22
2023-04-18T10:01:28.516Z,103082.16
2023-04-18T10:03:57.415Z,103092.25
2023-04-18T10:06:27.659Z,103098.69
2023-04-18T10:08:55.701Z,103086.34
2023-04-18T10:11:24.384Z,103089.66
2023-04-18T10:13:56.026Z,103076.22
2023-04-18T10:16:23.373Z,103080.97
2023-04-18T10:18:51.348Z,103082.38
2023-04-18T10:21:18.354Z,103090.00
2023-04-18T10:23:49.112Z,103079.25
2023-04-18T10:26:16.424Z,103097.41
2023-04-18T10:28:55.078Z,103077.44
2023-04-18T10:31:27.623Z,103095.38
2023-04-18T10:36:28.800Z,103074.34
2023-04-18T10:39:22.874Z,103078.88
2023-04-18T10:41:51.102Z,103084.38
2023-04-18T10:44:20.029Z,103083.81
2023-04-18T10:46:52.905Z,103087.00
2023-04-18T10:49:27.384Z,103084.81
2023-04-18T10:52:00.318Z,103079.34
2023-04-18T10:54:42.444Z,103077.59
2023-04-18T10:57:10.495Z,103074.16
2023-04-18T10:59:40.357Z,103088.81
2023-04-18T11:02:30.897Z,103077.78
2023-04-18T11:05:06.812Z,103077.47
2023-04-18T11:07:39.810Z,103077.91
2023-04-18T11:10:08.655Z,103078.78
2023-04-18T11:12:37.165Z,103080.97
2023-04-18T11:15:23.717Z,103081.06
2023-04-18T11:18:04.396Z,103077.38
2023-04-18T11:20:39.600Z,103074.31
2023-04-18T11:23:17.175Z,103068.84
2023-04-18T11:25:47.330Z,103075.28
2023-04-18T11:28:20.798Z,103079.13
2023-04-18T11:30:48.251Z,103077.69
2023-04-18T11:33:15.357Z,103075.13
2023-04-18T11:35:44.989Z,103071.28
2023-04-18T11:38:14.365Z,103075.75
2023-04-18T11:40:49.151Z,103077.59
2023-04-18T11:43:21.606Z,103084.81
2023-04-18T11:45:56.403Z,103071.31
2023-04-18T11:48:24.258Z,103079.59
2023-04-18T11:50:51.337Z,103076.38
2023-04-18T11:53:37.753Z,103072.25
2023-04-18T11:56:05.761Z,103076.91
2023-04-18T11:58:34.280Z,103071.16
2023-04-18T12:01:16.593Z,103080.50
2023-04-18T12:03:44.880Z,103069.00
2023-04-18T12:06:12.384Z,103074.22
2023-04-18T12:08:43.529Z,103070.78
2023-04-18T12:11:10.833Z,103062.94
2023-04-18T12:13:37.888Z,103067.19
2023-04-18T12:16:05.322Z,103063.53
2023-04-18T12:18:32.639Z,103074.53
2023-04-18T12:21:02.204Z,103080.16
2023-04-18T12:23:37.312Z,103066.94
2023-04-18T12:26:23.872Z,103070.38
2023-04-18T12:28:51.634Z,103070.69
2023-04-18T12:31:19.090Z,103064.31
2023-04-18T12:33:46.072Z,103066.25
2023-04-18T12:36:13.153Z,103054.38
2023-04-18T12:38:40.069Z,103048.31
2023-04-18T12:41:10.681Z,103056.25
2023-04-18T12:43:37.727Z,103049.44
2023-04-18T12:46:04.925Z,103055.22
2023-04-18T12:48:31.922Z,103052.56
2023-04-18T12:50:58.989Z,103050.19
2023-04-18T12:53:26.304Z,103047.69
2023-04-18T12:55:53.270Z,103052.97
2023-04-18T12:58:20.977Z,103043.56
2023-04-18T13:00:47.926Z,103049.44
2023-04-18T13:03:15.020Z,103047.00
2023-04-18T13:05:42.054Z,103042.91
2023-04-18T13:08:17.263Z,103043.06
2023-04-18T13:10:48.333Z,103046.91
2023-04-18T13:13:15.314Z,103040.13
2023-04-18T13:15:42.705Z,103035.72
2023-04-18T13:18:09.653Z,103039.81
2023-04-18T13:20:36.807Z,103037.16
2023-04-18T13:23:04.018Z,103044.81
2023-04-18T13:25:31.040Z,103043.56
2023-04-18T13:27:58.733Z,103041.03
2023-04-18T13:30:25.920Z,103030.88
2023-04-18T13:32:52.911Z,103036.84
2023-04-18T13:35:20.217Z,103045.81
2023-04-18T13:37:47.121Z,103033.06
2023-04-18T13:40:14.564Z,103034.16
2023-04-18T13:42:41.507Z,103034.47
2023-04-18T13:45:08.845Z,103026.47
2023-04-18T13:47:36.078Z,103023.19
2023-04-18T13:50:03.070Z,103020.44
2023-04-18T13:52:29.956Z,103020.97
2023-04-18T13:54:56.987Z,103027.25
2023-04-18T13:57:23.937Z,103026.56
2023-04-18T13:59:50.848Z,103026.47
2023-04-18T14:02:17.859Z,103024.91
2023-04-18T14:04:45.052Z,103029.59
2023-04-18T14:07:11.989Z,103034.47
2023-04-18T14:09:38.903Z,103035.31
2023-04-18T14:12:06.182Z,103035.56
2023-04-18T14:14:33.052Z,103032.19
2023-04-18T14:17:00.176Z,103024.81
2023-04-18T14:19:27.563Z,103030.78
2023-04-18T14:21:54.717Z,103020.28
2023-04-18T14:24:21.781Z,103020.03
2023-04-18T14:26:48.697Z,103023.41
2023-04-18T14:29:15.843Z,103027.88
2023-04-18T14:31:43.025Z,103023.66
2023-04-18T14:34:10.002Z,103024.03
2023-04-18T14:36:37.176Z,103020.28
2023-04-18T14:39:07.089Z,103017.22
2023-04-18T14:41:34.056Z,103017.88
2023-04-18T14:44:01.271Z,103017.25
2023-04-18T14:46:28.541Z,103010.13
2023-04-18T14:48:55.632Z,103013.00
2023-04-18T14:51:23.473Z,103017.00
2023-04-18T14:53:50.699Z,103015.44
2023-04-18T14:56:21.224Z,103021.13
2023-04-18T14:58:48.690Z,103010.31
2023-04-18T15:01:17.652Z,103012.97
2023-04-18T15:03:44.974Z,103004.31
2023-04-18T15:06:12.092Z,103002.56
2023-04-18T15:08:39.027Z,103001.81
2023-04-18T15:11:09.659Z,102997.75
2023-04-18T15:13:36.963Z,102997.25
2023-04-18T15:16:04.097Z,102987.94
2023-04-18T15:18:31.023Z,102996.63
2023-04-18T15:21:00.098Z,102988.81
2023-04-18T15:23:27.707Z,102985.00
2023-04-18T15:25:54.621Z,102991.31
2023-04-18T15:28:21.818Z,102996.53
2023-04-18T15:30:48.674Z,102996.38
2023-04-18T15:33:16.092Z,102997.75
2023-04-18T15:35:42.997Z,102990.63
2023-04-18T15:38:09.916Z,102991.41
2023-04-18T15:40:36.843Z,102997.41
2023-04-18T15:43:04.417Z,102980.81
2023-04-18T15:45:31.482Z,102983.69
2023-04-18T15:47:58.899Z,102983.78
2023-04-18T15:50:26.390Z,102985.94
2023-04-18T15:52:53.450Z,102987.47
2023-04-18T15:55:20.389Z,102981.66
2023-04-18T15:57:47.775Z,102996.38
2023-04-18T16:00:17.811Z,103000.50
2023-04-18T16:02:46.028Z,102999.63
2023-04-18T16:05:13.335Z,102999.06
2023-04-18T16:07:41.508Z,102992.09
2023-04-18T16:10:10.908Z,103000.25
2023-04-18T16:12:39.347Z,103003.16
2023-04-18T16:15:08.769Z,103003.00
2023-04-18T16:17:39.003Z,102997.59
2023-04-18T16:20:08.334Z,102994.94
2023-04-18T16:22:35.597Z,103011.25
2023-04-18T16:25:02.747Z,103007.34
2023-04-18T16:27:29.761Z,103001.66
2023-04-18T16:29:56.917Z,103002.47
2023-04-18T16:32:24.029Z,103010.94
2023-04-18T16:34:51.047Z,103003.38
2023-04-18T16:37:17.960Z,103008.31
2023-04-18T16:39:44.887Z,103010.88
2023-04-18T16:42:14.058Z,103001.91
2023-04-18T16:44:42.311Z,103010.75
2023-04-18T16:47:09.480Z,103012.91
2023-04-18T16:49:40.451Z,103015.28
2023-04-18T16:52:07.466Z,103007.91
2023-04-18T16:54:34.440Z,103004.97
2023-04-18T16:57:01.928Z,103014.94
2023-04-18T16:59:29.103Z,103001.22
2023-04-18T17:01:56.211Z,103002.03
2023-04-18T17:04:23.582Z,103005.41
2023-04-18T17:06:52.054Z,103001.09
2023-04-18T17:09:19.913Z,103000.88
2023-04-18T17:11:47.217Z,103004.38
2023-04-18T17:14:15.033Z,103005.00
2023-04-18T17:16:42.782Z,103004.94
2023-04-18T17:19:10.651Z,103013.53
2023-04-18T17:21:38.340Z,103014.25
2023-04-18T17:24:07.142Z,103014.56
2023-04-18T17:26:35.189Z,103015.34
2023-04-18T17:29:04.851Z,103026.09
2023-04-18T17:31:32.474Z,103024.44
2023-04-18T17:34:00.179Z,103026.19
2023-04-18T17:36:27.496Z,103023.50
2023-04-18T17:38:54.521Z,103018.56
2023-04-18T17:41:22.187Z,103025.91
2023-04-18T17:43:51.243Z,103021.22
2023-04-18T17:46:18.374Z,103023.31
2023-04-18T17:48:45.571Z,103027.78
2023-04-18T17:51:12.586Z,103022.44
2023-04-18T17:53:39.526Z,103026.19
2023-04-18T17:56:06.587Z,103033.56
2023-04-18T17:58:33.615Z,103034.88
2023-04-18T18:01:00.705Z,103039.41
2023-04-18T18:03:27.998Z,103052.00
2023-04-18T18:05:55.221Z,103042.28
2023-04-18T18:08:22.865Z,103048.38
2023-04-18T18:10:50.084Z,103056.53
2023-04-18T18:13:17.087Z,103054.22
2023-04-18T18:15:44.164Z,103055.94
2023-04-18T18:18:11.263Z,103055.22
2023-04-18T18:20:38.243Z,103061.53
2023-04-18T18:23:05.201Z,103059.91
2023-04-18T18:25:32.391Z,103066.00
2023-04-18T18:27:59.395Z,103067.06
2023-04-18T18:30:27.922Z,103068.16
2023-04-18T18:32:56.838Z,103059.69
2023-04-18T18:35:23.925Z,103070.22
2023-04-18T18:37:50.906Z,103072.97
2023-04-18T18:40:17.888Z,103081.72
2023-04-18T18:42:46.944Z,103074.56
2023-04-18T18:45:13.998Z,103079.16
2023-04-18T18:47:41.307Z,103074.91
2023-04-18T18:50:08.797Z,103077.56
2023-04-18T18:52:37.887Z,103073.97
2023-04-18T18:55:05.365Z,103083.84
2023-04-18T18:57:32.415Z,103081.94
2023-04-18T18:59:59.396Z,103079.25
2023-04-18T19:02:26.535Z,103082.03
2023-04-18T19:04:53.679Z,103085.81
2023-04-18T19:07:20.786Z,103087.84
2023-04-18T19:09:47.823Z,103082.38
2023-04-18T19:12:14.702Z,103094.75
2023-04-18T19:14:42.551Z,103094.97
2023-04-18T19:17:16.837Z,103094.00
2023-04-18T19:19:45.770Z,103089.78
2023-04-18T19:22:12.673Z,103096.06
2023-04-18T19:24:39.581Z,103100.41
2023-04-18T19:27:09.023Z,103097.75
2023-04-18T19:29:36.438Z,103105.72
2023-04-18T19:32:03.598Z,103103.91
2023-04-18T19:34:30.697Z,103103.19
2023-04-18T19:36:57.888Z,103107.28
2023-04-18T19:39:24.796Z,103109.06
2023-04-18T19:41:54.843Z,103121.28
2023-04-18T19:44:21.949Z,103112.66
2023-04-18T19:46:49.024Z,103117.97
2023-04-18T19:49:24.876Z,103123.47
2023-04-18T19:51:54.676Z,103123.44
2023-04-18T19:54:24.663Z,103120.81
2023-04-18T19:56:54.752Z,103116.00
2023-04-18T19:59:24.201Z,103122.09
2023-04-18T20:01:54.184Z,103122.09
2023-04-18T20:04:26.015Z,103122.03
2023-04-18T20:06:56.394Z,103123.81
2023-04-18T20:09:26.365Z,103119.72
2023-04-18T20:11:54.898Z,103123.69
2023-04-18T20:14:26.219Z,103123.28
2023-04-18T20:16:53.441Z,103128.09
2023-04-18T20:19:28.336Z,103131.91
2023-04-18T20:21:55.463Z,103131.81
2023-04-18T20:24:28.169Z,103136.59
2023-04-18T20:26:59.951Z,103130.50
2023-04-18T20:29:29.782Z,103128.91
2023-04-18T20:31:56.673Z,103138.19
2023-04-18T20:34:26.711Z,103135.53
2023-04-18T20:36:53.935Z,103139.16
2023-04-18T20:39:21.208Z,103140.28
2023-04-18T20:41:56.008Z,103140.28
2023-04-18T20:44:29.485Z,103143.22
2023-04-18T20:47:03.795Z,103138.38
2023-04-18T20:49:34.547Z,103141.38
2023-04-18T20:52:01.456Z,103143.28
2023-04-18T20:54:28.566Z,103146.09
2023-04-18T20:56:55.840Z,103140.91
2023-04-18T20:59:22.785Z,103143.84
2023-04-18T21:01:52.893Z,103145.75
2023-04-18T21:04:25.038Z,103150.28
2023-04-18T21:06:52.113Z,103156.94
2023-04-18T21:09:19.039Z,103160.59
2023-04-18T21:11:46.178Z,103156.25
2023-04-18T21:14:13.244Z,103158.91
2023-04-18T21:16:40.483Z,103163.63
2023-04-18T21:19:10.788Z,103165.56
2023-04-18T21:21:40.719Z,103164.69
2023-04-18T21:24:11.193Z,103159.75
2023-04-18T21:26:38.112Z,103162.66
2023-04-18T21:29:05.230Z,103166.19
2023-04-18T21:31:34.922Z,103158.28
2023-04-18T21:34:07.267Z,103162.78
2023-04-18T21:36:40.203Z,103159.38
2023-04-18T21:39:08.472Z,103159.63
2023-04-18T21:41:37.828Z,103154.44
2023-04-18T21:44:04.992Z,103157.34
2023-04-18T21:46:32.022Z,103157.50
2023-04-18T21:48:59.012Z,103158.38
2023-04-18T21:51:27.383Z,103153.16
2023-04-18T21:53:55.057Z,103154.25
2023-04-18T21:56:21.957Z,103157.75
2023-04-18T21:58:52.174Z,103154.97
2023-04-18T22:01:19.103Z,103150.75
2023-04-18T22:03:49.557Z,103154.38
2023-04-18T22:06:20.887Z,103148.97
2023-04-18T22:08:48.370Z,103153.50
2023-04-18T22:11:15.938Z,103153.41
2023-04-18T22:13:50.223Z,103151.69
2023-04-18T22:16:17.708Z,103155.28
2023-04-18T22:18:49.100Z,103165.03
2023-04-18T22:21:19.199Z,103163.47
2023-04-18T22:23:49.293Z,103159.97
2023-04-18T22:26:19.504Z,103161.72
2023-04-18T22:28:49.562Z,103170.63
2023-04-18T22:31:16.469Z,103165.25
2023-04-18T22:33:47.756Z,103171.19
2023-04-18T22:36:18.161Z,103167.81
2023-04-18T22:38:45.866Z,103168.00
2023-04-18T22:41:13.627Z,103168.84
2023-04-18T22:43:40.656Z,103170.69
2023-04-18T22:46:08.125Z,103172.06
2023-04-18T22:48:35.367Z,103167.63
2023-04-18T22:51:02.959Z,103171.22
2023-04-18T22:53:30.179Z,103172.56
2023-04-18T22:55:57.051Z,103169.16
2023-04-18T22:58:24.716Z,103171.53
2023-04-18T23:00:51.741Z,103173.88
2023-04-18T23:03:18.792Z,103183.22
2023-04-18T23:05:46.544Z,103175.22
2023-04-18T23:08:13.488Z,103169.06
2023-04-18T23:10:40.534Z,103180.59
2023-04-18T23:13:07.719Z,103177.50
2023-04-18T23:15:35.797Z,103187.13
2023-04-18T23:18:02.895Z,103180.38
2023-04-18T23:20:29.966Z,103187.38
2023-04-18T23:22:56.903Z,103171.41
2023-04-18T23:25:23.922Z,103180.44
2023-04-18T23:27:51.032Z,103183.06
2023-04-18T23:30:18.018Z,103178.69
2023-04-18T23:32:45.355Z,103189.53
2023-04-18T23:35:12.462Z,103189.72
2023-04-18T23:37:39.566Z,103189.84
2023-04-18T23:40:08.062Z,103191.00
2023-04-18T23:42:35.489Z,103196.13
2023-04-18T23:45:04.236Z,103193.88
2023-04-18T23:47:31.288Z,103190.66
2023-04-18T23:49:58.335Z,103190.75
2023-04-18T23:52:25.988Z,103184.66
2023-04-18T23:54:52.921Z,103182.94
2023-04-18T23:57:19.767Z,103192.59
2023-04-18T23:59:46.696Z,103190.00
